sensor_id;sensor_type;location;lat;lon;timestamp;P1;durP1;ratioP1;P2;durP2;ratioP2
22937;SDS011;11634;42.734;23.298;2023-03-01T00:01:27;4.60;;;3.72;;
22937;SDS011;11634;42.734;23.298;2023-03-01T00:03:54;4.88;;;3.03;;
22937;SDS011;11634;42.734;23.298;2023-03-01T00:06:20;4.47;;;3.50;;
22937;SDS011;11634;42.734;23.298;2023-03-01T00:08:46;2.88;;;2.63;;
22937;SDS011;11634;42.734;23.298;2023-03-01T00:11:14;4.53;;;3.33;;
22937;SDS011;11634;42.734;23.298;2023-03-01T00:13:46;3.50;;;2.85;;
22937;SDS011;11634;42.734;23.298;2023-03-01T00:16:16;3.45;;;3.08;;
22937;SDS011;11634;42.734;23.298;2023-03-01T00:18:43;2.90;;;2.47;;
22937;SDS011;11634;42.734;23.298;2023-03-01T00:21:10;3.83;;;2.63;;
22937;SDS011;11634;42.734;23.298;2023-03-01T00:23:37;3.90;;;3.50;;
22937;SDS011;11634;42.734;23.298;2023-03-01T00:26:10;4.65;;;3.45;;
22937;SDS011;11634;42.734;23.298;2023-03-01T00:28:39;2.60;;;1.67;;
22937;SDS011;11634;42.734;23.298;2023-03-01T00:31:13;3.78;;;3.40;;
22937;SDS011;11634;42.734;23.298;2023-03-01T00:33:41;3.08;;;1.73;;
22937;SDS011;11634;42.734;23.298;2023-03-01T00:36:08;2.45;;;2.20;;
22937;SDS011;11634;42.734;23.298;2023-03-01T00:38:38;2.67;;;2.40;;
22937;SDS011;11634;42.734;23.298;2023-03-01T00:41:06;2.38;;;2.17;;
22937;SDS011;11634;42.734;23.298;2023-03-01T00:43:34;2.88;;;2.53;;
22937;SDS011;11634;42.734;23.298;2023-03-01T00:46:05;4.50;;;2.80;;
22937;SDS011;11634;42.734;23.298;2023-03-01T00:48:33;2.70;;;2.30;;
22937;SDS011;11634;42.734;23.298;2023-03-01T00:51:07;4.00;;;3.03;;
22937;SDS011;11634;42.734;23.298;2023-03-01T00:53:37;4.18;;;3.47;;
22937;SDS011;11634;42.734;23.298;2023-03-01T00:56:03;4.72;;;3.97;;
22937;SDS011;11634;42.734;23.298;2023-03-01T00:58:30;7.65;;;5.68;;
22937;SDS011;11634;42.734;23.298;2023-03-01T01:00:56;6.68;;;5.65;;
22937;SDS011;11634;42.734;23.298;2023-03-01T01:03:22;6.28;;;5.30;;
22937;SDS011;11634;42.734;23.298;2023-03-01T01:05:52;5.10;;;3.83;;
22937;SDS011;11634;42.734;23.298;2023-03-01T01:08:19;3.95;;;2.63;;
22937;SDS011;11634;42.734;23.298;2023-03-01T01:10:45;6.00;;;5.40;;
22937;SDS011;11634;42.734;23.298;2023-03-01T01:13:31;10.43;;;5.70;;
22937;SDS011;11634;42.734;23.298;2023-03-01T01:16:00;7.95;;;6.15;;
22937;SDS011;11634;42.734;23.298;2023-03-01T01:18:26;4.80;;;4.03;;
22937;SDS011;11634;42.734;23.298;2023-03-01T01:20:52;7.38;;;4.22;;
22937;SDS011;11634;42.734;23.298;2023-03-01T01:23:18;9.75;;;5.28;;
22937;SDS011;11634;42.734;23.298;2023-03-01T01:25:43;4.80;;;2.97;;
22937;SDS011;11634;42.734;23.298;2023-03-01T01:28:09;4.78;;;3.25;;
22937;SDS011;11634;42.734;23.298;2023-03-01T01:30:34;6.38;;;5.60;;
22937;SDS011;11634;42.734;23.298;2023-03-01T01:33:00;6.80;;;5.10;;
22937;SDS011;11634;42.734;23.298;2023-03-01T01:35:26;9.93;;;5.57;;
22937;SDS011;11634;42.734;23.298;2023-03-01T01:37:52;12.10;;;7.53;;
22937;SDS011;11634;42.734;23.298;2023-03-01T01:40:18;6.82;;;3.75;;
22937;SDS011;11634;42.734;23.298;2023-03-01T01:42:43;10.05;;;6.05;;
22937;SDS011;11634;42.734;23.298;2023-03-01T01:45:30;10.38;;;5.93;;
22937;SDS011;11634;42.734;23.298;2023-03-01T01:48:04;7.32;;;5.13;;
22937;SDS011;11634;42.734;23.298;2023-03-01T01:50:35;7.47;;;4.18;;
22937;SDS011;11634;42.734;23.298;2023-03-01T01:53:09;5.15;;;3.72;;
22937;SDS011;11634;42.734;23.298;2023-03-01T01:55:41;3.50;;;3.00;;
22937;SDS011;11634;42.734;23.298;2023-03-01T01:58:10;3.92;;;2.47;;
22937;SDS011;11634;42.734;23.298;2023-03-01T02:00:39;2.72;;;2.28;;
22937;SDS011;11634;42.734;23.298;2023-03-01T02:03:11;2.72;;;2.38;;
22937;SDS011;11634;42.734;23.298;2023-03-01T02:08:16;4.28;;;3.15;;
22937;SDS011;11634;42.734;23.298;2023-03-01T02:10:43;3.80;;;2.50;;
22937;SDS011;11634;42.734;23.298;2023-03-01T02:13:10;2.90;;;2.70;;
22937;SDS011;11634;42.734;23.298;2023-03-01T02:15:37;3.13;;;2.25;;
22937;SDS011;11634;42.734;23.298;2023-03-01T02:18:04;5.85;;;3.70;;
22937;SDS011;11634;42.734;23.298;2023-03-01T02:23:00;2.45;;;1.88;;
22937;SDS011;11634;42.734;23.298;2023-03-01T02:25:38;2.70;;;2.40;;
22937;SDS011;11634;42.734;23.298;2023-03-01T02:30:41;3.03;;;2.08;;
22937;SDS011;11634;42.734;23.298;2023-03-01T02:33:29;3.17;;;2.45;;
22937;SDS011;11634;42.734;23.298;2023-03-01T02:36:20;2.72;;;2.17;;
22937;SDS011;11634;42.734;23.298;2023-03-01T02:38:46;2.30;;;2.10;;
22937;SDS011;11634;42.734;23.298;2023-03-01T02:41:15;1.77;;;1.55;;
22937;SDS011;11634;42.734;23.298;2023-03-01T02:43:44;3.80;;;1.58;;
22937;SDS011;11634;42.734;23.298;2023-03-01T02:46:15;2.08;;;1.55;;
22937;SDS011;11634;42.734;23.298;2023-03-01T02:48:44;1.10;;;0.90;;
22937;SDS011;11634;42.734;23.298;2023-03-01T02:54:09;2.05;;;1.35;;
22937;SDS011;11634;42.734;23.298;2023-03-01T02:56:43;1.65;;;1.30;;
22937;SDS011;11634;42.734;23.298;2023-03-01T02:59:14;2.10;;;1.40;;
22937;SDS011;11634;42.734;23.298;2023-03-01T03:01:41;1.42;;;1.25;;
22937;SDS011;11634;42.734;23.298;2023-03-01T03:04:08;3.72;;;1.13;;
22937;SDS011;11634;42.734;23.298;2023-03-01T03:06:37;3.08;;;1.80;;
22937;SDS011;11634;42.734;23.298;2023-03-01T03:09:03;2.30;;;1.40;;
22937;SDS011;11634;42.734;23.298;2023-03-01T03:11:29;1.50;;;1.40;;
22937;SDS011;11634;42.734;23.298;2023-03-01T03:13:56;1.98;;;1.65;;
22937;SDS011;11634;42.734;23.298;2023-03-01T03:16:23;2.30;;;1.85;;
22937;SDS011;11634;42.734;23.298;2023-03-01T03:18:49;2.45;;;2.15;;
22937;SDS011;11634;42.734;23.298;2023-03-01T03:21:15;2.60;;;2.10;;
22937;SDS011;11634;42.734;23.298;2023-03-01T03:23:42;2.85;;;2.28;;
22937;SDS011;11634;42.734;23.298;2023-03-01T03:26:08;2.40;;;2.10;;
22937;SDS011;11634;42.734;23.298;2023-03-01T03:28:34;2.45;;;2.10;;
22937;SDS011;11634;42.734;23.298;2023-03-01T03:31:00;2.70;;;2.10;;
22937;SDS011;11634;42.734;23.298;2023-03-01T03:33:30;2.17;;;1.98;;
22937;SDS011;11634;42.734;23.298;2023-03-01T03:35:56;4.05;;;2.38;;
22937;SDS011;11634;42.734;23.298;2023-03-01T03:38:22;3.33;;;2.25;;
22937;SDS011;11634;42.734;23.298;2023-03-01T03:41:09;3.42;;;3.13;;
22937;SDS011;11634;42.734;23.298;2023-03-01T03:43:35;1.95;;;1.85;;
22937;SDS011;11634;42.734;23.298;2023-03-01T03:46:02;1.92;;;1.63;;
22937;SDS011;11634;42.734;23.298;2023-03-01T03:48:34;3.25;;;2.95;;
22937;SDS011;11634;42.734;23.298;2023-03-01T03:51:01;4.03;;;2.13;;
22937;SDS011;11634;42.734;23.298;2023-03-01T03:53:27;3.97;;;2.50;;
22937;SDS011;11634;42.734;23.298;2023-03-01T03:55:54;2.08;;;1.65;;
22937;SDS011;11634;42.734;23.298;2023-03-01T03:58:21;3.78;;;3.20;;
22937;SDS011;11634;42.734;23.298;2023-03-01T04:00:48;3.95;;;2.63;;
22937;SDS011;11634;42.734;23.298;2023-03-01T04:03:17;2.92;;;2.63;;
22937;SDS011;11634;42.734;23.298;2023-03-01T04:05:45;2.33;;;1.38;;
22937;SDS011;11634;42.734;23.298;2023-03-01T04:08:12;1.00;;;0.80;;
22937;SDS011;11634;42.734;23.298;2023-03-01T04:10:42;0.50;;;0.50;;
22937;SDS011;11634;42.734;23.298;2023-03-01T04:13:20;1.67;;;0.70;;
22937;SDS011;11634;42.734;23.298;2023-03-01T04:15:54;0.80;;;0.63;;
22937;SDS011;11634;42.734;23.298;2023-03-01T04:18:21;1.23;;;0.50;;
22937;SDS011;11634;42.734;23.298;2023-03-01T04:20:50;0.68;;;0.50;;
22937;SDS011;11634;42.734;23.298;2023-03-01T04:23:22;0.98;;;0.50;;
22937;SDS011;11634;42.734;23.298;2023-03-01T04:25:49;2.15;;;1.10;;
22937;SDS011;11634;42.734;23.298;2023-03-01T04:28:23;0.93;;;0.60;;
22937;SDS011;11634;42.734;23.298;2023-03-01T04:31:02;3.50;;;1.90;;
22937;SDS011;11634;42.734;23.298;2023-03-01T04:33:41;1.90;;;1.20;;
22937;SDS011;11634;42.734;23.298;2023-03-01T04:36:09;1.13;;;0.80;;
22937;SDS011;11634;42.734;23.298;2023-03-01T04:38:36;0.83;;;0.70;;
22937;SDS011;11634;42.734;23.298;2023-03-01T04:41:06;1.13;;;0.70;;
22937;SDS011;11634;42.734;23.298;2023-03-01T04:43:34;0.68;;;0.60;;
22937;SDS011;11634;42.734;23.298;2023-03-01T04:46:04;1.00;;;0.75;;
22937;SDS011;11634;42.734;23.298;2023-03-01T04:48:34;0.82;;;0.73;;
22937;SDS011;11634;42.734;23.298;2023-03-01T04:51:04;0.40;;;0.40;;
22937;SDS011;11634;42.734;23.298;2023-03-01T04:53:30;1.83;;;1.08;;
22937;SDS011;11634;42.734;23.298;2023-03-01T04:55:57;2.57;;;0.87;;
22937;SDS011;11634;42.734;23.298;2023-03-01T04:58:24;0.50;;;0.50;;
22937;SDS011;11634;42.734;23.298;2023-03-01T05:00:51;0.55;;;0.55;;
22937;SDS011;11634;42.734;23.298;2023-03-01T05:03:18;1.40;;;0.90;;
22937;SDS011;11634;42.734;23.298;2023-03-01T05:05:45;0.70;;;0.70;;
22937;SDS011;11634;42.734;23.298;2023-03-01T05:08:12;1.00;;;0.90;;
22937;SDS011;11634;42.734;23.298;2023-03-01T05:10:43;1.00;;;0.90;;
22937;SDS011;11634;42.734;23.298;2023-03-01T05:13:11;1.10;;;0.90;;
22937;SDS011;11634;42.734;23.298;2023-03-01T05:15:46;1.00;;;0.90;;
22937;SDS011;11634;42.734;23.298;2023-03-01T05:18:14;1.55;;;0.90;;
22937;SDS011;11634;42.734;23.298;2023-03-01T05:20:40;1.20;;;0.97;;
22937;SDS011;11634;42.734;23.298;2023-03-01T05:23:06;2.17;;;1.83;;
22937;SDS011;11634;42.734;23.298;2023-03-01T05:25:34;3.10;;;1.90;;
22937;SDS011;11634;42.734;23.298;2023-03-01T05:28:05;4.30;;;2.30;;
22937;SDS011;11634;42.734;23.298;2023-03-01T05:30:35;2.60;;;2.10;;
22937;SDS011;11634;42.734;23.298;2023-03-01T05:33:01;3.00;;;2.33;;
22937;SDS011;11634;42.734;23.298;2023-03-01T05:35:27;4.40;;;2.50;;
22937;SDS011;11634;42.734;23.298;2023-03-01T05:37:52;4.37;;;2.80;;
22937;SDS011;11634;42.734;23.298;2023-03-01T05:40:19;2.50;;;1.70;;
22937;SDS011;11634;42.734;23.298;2023-03-01T05:42:47;2.40;;;1.60;;
22937;SDS011;11634;42.734;23.298;2023-03-01T05:45:14;3.05;;;2.10;;
22937;SDS011;11634;42.734;23.298;2023-03-01T05:47:41;2.63;;;1.63;;
22937;SDS011;11634;42.734;23.298;2023-03-01T05:50:12;2.05;;;1.83;;
22937;SDS011;11634;42.734;23.298;2023-03-01T05:52:51;4.13;;;2.40;;
22937;SDS011;11634;42.734;23.298;2023-03-01T05:55:23;2.90;;;2.20;;
22937;SDS011;11634;42.734;23.298;2023-03-01T05:57:49;1.63;;;1.40;;
22937;SDS011;11634;42.734;23.298;2023-03-01T06:00:18;2.47;;;1.90;;
22937;SDS011;11634;42.734;23.298;2023-03-01T06:02:47;5.40;;;2.13;;
22937;SDS011;11634;42.734;23.298;2023-03-01T06:05:13;3.97;;;2.25;;
22937;SDS011;11634;42.734;23.298;2023-03-01T06:07:40;4.30;;;2.55;;
22937;SDS011;11634;42.734;23.298;2023-03-01T06:10:06;2.17;;;1.85;;
22937;SDS011;11634;42.734;23.298;2023-03-01T06:12:36;2.78;;;2.35;;
22937;SDS011;11634;42.734;23.298;2023-03-01T06:15:03;4.05;;;2.47;;
22937;SDS011;11634;42.734;23.298;2023-03-01T06:17:30;2.80;;;2.33;;
22937;SDS011;11634;42.734;23.298;2023-03-01T06:19:57;3.88;;;3.28;;
22937;SDS011;11634;42.734;23.298;2023-03-01T06:22:23;5.70;;;4.78;;
22937;SDS011;11634;42.734;23.298;2023-03-01T06:24:52;2.92;;;2.63;;
22937;SDS011;11634;42.734;23.298;2023-03-01T06:27:20;5.00;;;3.53;;
22937;SDS011;11634;42.734;23.298;2023-03-01T06:29:46;4.18;;;2.40;;
22937;SDS011;11634;42.734;23.298;2023-03-01T06:32:14;3.92;;;3.13;;
22937;SDS011;11634;42.734;23.298;2023-03-01T06:34:40;5.20;;;3.70;;
22937;SDS011;11634;42.734;23.298;2023-03-01T06:37:06;4.88;;;4.13;;
22937;SDS011;11634;42.734;23.298;2023-03-01T06:39:32;6.43;;;3.80;;
22937;SDS011;11634;42.734;23.298;2023-03-01T06:41:58;5.70;;;4.47;;
22937;SDS011;11634;42.734;23.298;2023-03-01T06:44:24;5.82;;;3.28;;
22937;SDS011;11634;42.734;23.298;2023-03-01T06:46:50;4.28;;;3.22;;
22937;SDS011;11634;42.734;23.298;2023-03-01T06:49:15;7.63;;;4.47;;
22937;SDS011;11634;42.734;23.298;2023-03-01T06:51:43;6.90;;;4.43;;
22937;SDS011;11634;42.734;23.298;2023-03-01T06:54:12;7.05;;;5.07;;
22937;SDS011;11634;42.734;23.298;2023-03-01T06:56:38;6.65;;;4.53;;
22937;SDS011;11634;42.734;23.298;2023-03-01T06:59:04;7.55;;;5.35;;
22937;SDS011;11634;42.734;23.298;2023-03-01T07:01:30;5.43;;;3.53;;
22937;SDS011;11634;42.734;23.298;2023-03-01T07:03:56;6.18;;;4.85;;
22937;SDS011;11634;42.734;23.298;2023-03-01T07:06:22;3.70;;;3.30;;
22937;SDS011;11634;42.734;23.298;2023-03-01T07:08:48;6.05;;;4.30;;
22937;SDS011;11634;42.734;23.298;2023-03-01T07:11:14;3.78;;;2.60;;
22937;SDS011;11634;42.734;23.298;2023-03-01T07:13:41;2.97;;;1.77;;
22937;SDS011;11634;42.734;23.298;2023-03-01T07:16:06;3.75;;;2.08;;
22937;SDS011;11634;42.734;23.298;2023-03-01T07:18:32;5.63;;;3.50;;
22937;SDS011;11634;42.734;23.298;2023-03-01T07:20:58;3.42;;;2.88;;
22937;SDS011;11634;42.734;23.298;2023-03-01T07:23:28;3.45;;;2.83;;
22937;SDS011;11634;42.734;23.298;2023-03-01T07:25:54;6.50;;;3.92;;
22937;SDS011;11634;42.734;23.298;2023-03-01T07:28:20;4.28;;;2.85;;
22937;SDS011;11634;42.734;23.298;2023-03-01T07:30:47;4.45;;;2.92;;
22937;SDS011;11634;42.734;23.298;2023-03-01T07:33:12;5.50;;;3.60;;
22937;SDS011;11634;42.734;23.298;2023-03-01T07:35:38;2.85;;;2.60;;
22937;SDS011;11634;42.734;23.298;2023-03-01T07:38:03;4.55;;;3.22;;
22937;SDS011;11634;42.734;23.298;2023-03-01T07:40:29;2.33;;;2.05;;
22937;SDS011;11634;42.734;23.298;2023-03-01T07:42:55;4.07;;;2.85;;
22937;SDS011;11634;42.734;23.298;2023-03-01T07:45:21;5.07;;;2.47;;
22937;SDS011;11634;42.734;23.298;2023-03-01T07:47:47;2.70;;;2.15;;
22937;SDS011;11634;42.734;23.298;2023-03-01T07:50:13;3.80;;;2.72;;
22937;SDS011;11634;42.734;23.298;2023-03-01T07:52:38;4.15;;;3.30;;
22937;SDS011;11634;42.734;23.298;2023-03-01T07:55:04;7.00;;;3.38;;
22937;SDS011;11634;42.734;23.298;2023-03-01T07:57:30;3.67;;;2.70;;
22937;SDS011;11634;42.734;23.298;2023-03-01T07:59:56;8.65;;;4.10;;
22937;SDS011;11634;42.734;23.298;2023-03-01T08:02:22;5.03;;;3.55;;
22937;SDS011;11634;42.734;23.298;2023-03-01T08:04:48;3.63;;;2.92;;
22937;SDS011;11634;42.734;23.298;2023-03-01T08:07:13;7.72;;;4.15;;
22937;SDS011;11634;42.734;23.298;2023-03-01T08:09:39;8.43;;;4.68;;
22937;SDS011;11634;42.734;23.298;2023-03-01T08:12:05;1.30;;;0.90;;
22937;SDS011;11634;42.734;23.298;2023-03-01T08:14:33;2.22;;;1.70;;
22937;SDS011;11634;42.734;23.298;2023-03-01T08:16:59;1.30;;;1.20;;
22937;SDS011;11634;42.734;23.298;2023-03-01T08:19:25;1.70;;;1.30;;
22937;SDS011;11634;42.734;23.298;2023-03-01T08:21:50;2.55;;;1.88;;
22937;SDS011;11634;42.734;23.298;2023-03-01T08:24:16;3.35;;;1.83;;
22937;SDS011;11634;42.734;23.298;2023-03-01T08:26:41;1.42;;;1.20;;
22937;SDS011;11634;42.734;23.298;2023-03-01T08:29:07;2.70;;;1.60;;
22937;SDS011;11634;42.734;23.298;2023-03-01T08:31:34;3.08;;;1.88;;
22937;SDS011;11634;42.734;23.298;2023-03-01T08:34:02;3.85;;;1.73;;
22937;SDS011;11634;42.734;23.298;2023-03-01T08:36:32;5.25;;;3.15;;
22937;SDS011;11634;42.734;23.298;2023-03-01T08:39:02;5.95;;;2.40;;
22937;SDS011;11634;42.734;23.298;2023-03-01T08:41:29;2.28;;;2.08;;
22937;SDS011;11634;42.734;23.298;2023-03-01T08:43:55;3.05;;;2.45;;
22937;SDS011;11634;42.734;23.298;2023-03-01T08:46:27;1.73;;;1.63;;
22937;SDS011;11634;42.734;23.298;2023-03-01T08:48:54;3.25;;;2.40;;
22937;SDS011;11634;42.734;23.298;2023-03-01T08:51:21;4.28;;;3.00;;
22937;SDS011;11634;42.734;23.298;2023-03-01T08:53:48;5.93;;;3.35;;
22937;SDS011;11634;42.734;23.298;2023-03-01T08:56:14;4.63;;;3.00;;
22937;SDS011;11634;42.734;23.298;2023-03-01T08:58:43;5.60;;;3.38;;
22937;SDS011;11634;42.734;23.298;2023-03-01T09:01:10;3.72;;;3.30;;
22937;SDS011;11634;42.734;23.298;2023-03-01T09:03:36;2.85;;;2.65;;
22937;SDS011;11634;42.734;23.298;2023-03-01T09:06:02;2.78;;;2.55;;
22937;SDS011;11634;42.734;23.298;2023-03-01T09:08:29;5.25;;;3.90;;
22937;SDS011;11634;42.734;23.298;2023-03-01T09:10:55;5.53;;;2.75;;
22937;SDS011;11634;42.734;23.298;2023-03-01T09:13:22;3.88;;;3.30;;
22937;SDS011;11634;42.734;23.298;2023-03-01T09:15:50;2.67;;;2.25;;
22937;SDS011;11634;42.734;23.298;2023-03-01T09:18:16;4.45;;;3.33;;
22937;SDS011;11634;42.734;23.298;2023-03-01T09:20:42;3.83;;;3.03;;
22937;SDS011;11634;42.734;23.298;2023-03-01T09:23:08;2.13;;;1.92;;
22937;SDS011;11634;42.734;23.298;2023-03-01T09:25:33;3.08;;;1.35;;
22937;SDS011;11634;42.734;23.298;2023-03-01T09:27:59;3.50;;;2.28;;
22937;SDS011;11634;42.734;23.298;2023-03-01T09:30:25;2.05;;;1.80;;
22937;SDS011;11634;42.734;23.298;2023-03-01T09:32:51;4.32;;;1.75;;
22937;SDS011;11634;42.734;23.298;2023-03-01T09:35:17;4.43;;;2.63;;
22937;SDS011;11634;42.734;23.298;2023-03-01T09:37:45;2.47;;;1.75;;
22937;SDS011;11634;42.734;23.298;2023-03-01T09:40:12;4.28;;;3.08;;
22937;SDS011;11634;42.734;23.298;2023-03-01T09:43:15;2.38;;;1.67;;
22937;SDS011;11634;42.734;23.298;2023-03-01T09:45:54;2.40;;;1.25;;
22937;SDS011;11634;42.734;23.298;2023-03-01T09:48:25;1.70;;;1.60;;
22937;SDS011;11634;42.734;23.298;2023-03-01T09:50:53;2.15;;;1.92;;
22937;SDS011;11634;42.734;23.298;2023-03-01T09:54:22;5.97;;;2.60;;
22937;SDS011;11634;42.734;23.298;2023-03-01T09:57:55;2.50;;;1.83;;
22937;SDS011;11634;42.734;23.298;2023-03-01T10:01:42;2.05;;;1.50;;
22937;SDS011;11634;42.734;23.298;2023-03-01T10:10:21;2.95;;;1.20;;
22937;SDS011;11634;42.734;23.298;2023-03-01T10:13:02;3.60;;;1.58;;
22937;SDS011;11634;42.734;23.298;2023-03-01T10:15:41;1.60;;;0.90;;
22937;SDS011;11634;42.734;23.298;2023-03-01T10:18:20;1.60;;;1.15;;
22937;SDS011;11634;42.734;23.298;2023-03-01T10:21:00;1.02;;;0.80;;
22937;SDS011;11634;42.734;23.298;2023-03-01T10:23:29;0.95;;;0.60;;
22937;SDS011;11634;42.734;23.298;2023-03-01T10:26:19;2.20;;;1.60;;
22937;SDS011;11634;42.734;23.298;2023-03-01T10:29:10;3.47;;;1.42;;
22937;SDS011;11634;42.734;23.298;2023-03-01T10:34:10;3.70;;;1.33;;
22937;SDS011;11634;42.734;23.298;2023-03-01T10:36:39;4.35;;;1.60;;
22937;SDS011;11634;42.734;23.298;2023-03-01T10:39:11;1.75;;;1.50;;
22937;SDS011;11634;42.734;23.298;2023-03-01T10:41:59;6.15;;;1.30;;
22937;SDS011;11634;42.734;23.298;2023-03-01T10:47:02;2.92;;;1.30;;
22937;SDS011;11634;42.734;23.298;2023-03-01T10:49:29;3.90;;;1.33;;
22937;SDS011;11634;42.734;23.298;2023-03-01T10:51:55;5.57;;;1.58;;
22937;SDS011;11634;42.734;23.298;2023-03-01T10:54:28;6.63;;;1.65;;
22937;SDS011;11634;42.734;23.298;2023-03-01T10:56:56;1.38;;;1.10;;
22937;SDS011;11634;42.734;23.298;2023-03-01T10:59:34;2.47;;;1.35;;
22937;SDS011;11634;42.734;23.298;2023-03-01T11:02:23;1.20;;;1.10;;
22937;SDS011;11634;42.734;23.298;2023-03-01T11:04:58;1.20;;;1.10;;
22937;SDS011;11634;42.734;23.298;2023-03-01T11:07:47;2.80;;;0.95;;
22937;SDS011;11634;42.734;23.298;2023-03-01T11:10:17;3.25;;;1.27;;
22937;SDS011;11634;42.734;23.298;2023-03-01T11:12:47;2.35;;;1.10;;
22937;SDS011;11634;42.734;23.298;2023-03-01T11:15:22;3.08;;;1.65;;
22937;SDS011;11634;42.734;23.298;2023-03-01T11:17:54;2.65;;;1.90;;
22937;SDS011;11634;42.734;23.298;2023-03-01T11:20:31;2.70;;;1.83;;
22937;SDS011;11634;42.734;23.298;2023-03-01T11:23:01;2.60;;;1.10;;
22937;SDS011;11634;42.734;23.298;2023-03-01T11:25:33;1.38;;;1.02;;
22937;SDS011;11634;42.734;23.298;2023-03-01T11:28:03;1.27;;;0.98;;
22937;SDS011;11634;42.734;23.298;2023-03-01T11:30:32;3.85;;;2.28;;
22937;SDS011;11634;42.734;23.298;2023-03-01T11:35:57;2.00;;;1.80;;
22937;SDS011;11634;42.734;23.298;2023-03-01T11:38:29;2.05;;;1.42;;
22937;SDS011;11634;42.734;23.298;2023-03-01T11:41:00;1.63;;;1.05;;
22937;SDS011;11634;42.734;23.298;2023-03-01T12:18:58;2.13;;;1.67;;
22937;SDS011;11634;42.734;23.298;2023-03-01T12:31:10;2.15;;;1.50;;
22937;SDS011;11634;42.734;23.298;2023-03-01T12:36:31;1.15;;;0.90;;
22937;SDS011;11634;42.734;23.298;2023-03-01T12:50:48;5.18;;;2.35;;
22937;SDS011;11634;42.734;23.298;2023-03-01T12:56:19;2.25;;;1.48;;
22937;SDS011;11634;42.734;23.298;2023-03-01T13:01:51;3.00;;;1.98;;
22937;SDS011;11634;42.734;23.298;2023-03-01T13:12:59;2.30;;;1.90;;
22937;SDS011;11634;42.734;23.298;2023-03-01T13:15:32;3.40;;;1.52;;
22937;SDS011;11634;42.734;23.298;2023-03-01T13:33:58;6.03;;;3.15;;
22937;SDS011;11634;42.734;23.298;2023-03-01T13:49:45;3.35;;;2.60;;
22937;SDS011;11634;42.734;23.298;2023-03-01T13:55:21;4.75;;;2.58;;
22937;SDS011;11634;42.734;23.298;2023-03-01T13:57:57;3.90;;;2.95;;
22937;SDS011;11634;42.734;23.298;2023-03-01T14:00:37;4.15;;;2.70;;
22937;SDS011;11634;42.734;23.298;2023-03-01T14:03:15;3.75;;;2.28;;
22937;SDS011;11634;42.734;23.298;2023-03-01T14:09:05;6.05;;;2.65;;
22937;SDS011;11634;42.734;23.298;2023-03-01T14:14:45;6.53;;;3.70;;
22937;SDS011;11634;42.734;23.298;2023-03-01T14:20:00;3.90;;;2.50;;
22937;SDS011;11634;42.734;23.298;2023-03-01T14:22:33;4.35;;;2.97;;
22937;SDS011;11634;42.734;23.298;2023-03-01T14:25:05;1.90;;;1.60;;
22937;SDS011;11634;42.734;23.298;2023-03-01T14:30:52;3.42;;;2.28;;
22937;SDS011;11634;42.734;23.298;2023-03-01T14:33:31;4.97;;;2.85;;
22937;SDS011;11634;42.734;23.298;2023-03-01T14:36:00;6.28;;;3.50;;
22937;SDS011;11634;42.734;23.298;2023-03-01T14:38:29;4.28;;;2.92;;
22937;SDS011;11634;42.734;23.298;2023-03-01T14:41:05;5.25;;;3.42;;
22937;SDS011;11634;42.734;23.298;2023-03-01T14:43:35;6.15;;;3.15;;
22937;SDS011;11634;42.734;23.298;2023-03-01T14:46:05;4.10;;;2.50;;
22937;SDS011;11634;42.734;23.298;2023-03-01T14:48:31;4.13;;;2.10;;
22937;SDS011;11634;42.734;23.298;2023-03-01T14:50:57;4.78;;;3.00;;
22937;SDS011;11634;42.734;23.298;2023-03-01T14:53:27;8.80;;;3.50;;
22937;SDS011;11634;42.734;23.298;2023-03-01T14:55:55;6.07;;;2.78;;
22937;SDS011;11634;42.734;23.298;2023-03-01T14:58:31;5.47;;;2.53;;
22937;SDS011;11634;42.734;23.298;2023-03-01T15:00:59;5.43;;;3.03;;
22937;SDS011;11634;42.734;23.298;2023-03-01T15:03:31;4.45;;;2.92;;
22937;SDS011;11634;42.734;23.298;2023-03-01T15:06:02;4.18;;;2.65;;
22937;SDS011;11634;42.734;23.298;2023-03-01T15:08:29;3.38;;;2.58;;
22937;SDS011;11634;42.734;23.298;2023-03-01T15:11:33;3.17;;;1.67;;
22937;SDS011;11634;42.734;23.298;2023-03-01T15:13:55;2.90;;;2.40;;
22937;SDS011;11634;42.734;23.298;2023-03-01T15:16:29;4.68;;;3.13;;
22937;SDS011;11634;42.734;23.298;2023-03-01T15:19:00;7.43;;;4.15;;
22937;SDS011;11634;42.734;23.298;2023-03-01T15:21:34;9.00;;;4.85;;
22937;SDS011;11634;42.734;23.298;2023-03-01T15:26:50;5.90;;;3.00;;
22937;SDS011;11634;42.734;23.298;2023-03-01T15:29:25;8.68;;;4.03;;
22937;SDS011;11634;42.734;23.298;2023-03-01T15:32:33;4.93;;;2.95;;
22937;SDS011;11634;42.734;23.298;2023-03-01T15:35:33;8.63;;;3.38;;
22937;SDS011;11634;42.734;23.298;2023-03-01T15:43:58;7.15;;;2.95;;
22937;SDS011;11634;42.734;23.298;2023-03-01T15:49:00;6.22;;;4.13;;
22937;SDS011;11634;42.734;23.298;2023-03-01T15:51:38;5.90;;;3.67;;
22937;SDS011;11634;42.734;23.298;2023-03-01T15:54:13;4.50;;;3.10;;
22937;SDS011;11634;42.734;23.298;2023-03-01T15:56:45;6.28;;;3.78;;
22937;SDS011;11634;42.734;23.298;2023-03-01T15:59:11;4.80;;;2.60;;
22937;SDS011;11634;42.734;23.298;2023-03-01T16:01:39;5.03;;;3.90;;
22937;SDS011;11634;42.734;23.298;2023-03-01T16:04:09;4.45;;;3.10;;
22937;SDS011;11634;42.734;23.298;2023-03-01T16:06:37;6.07;;;4.18;;
22937;SDS011;11634;42.734;23.298;2023-03-01T16:09:05;8.73;;;5.10;;
22937;SDS011;11634;42.734;23.298;2023-03-01T16:11:30;4.30;;;2.70;;
22937;SDS011;11634;42.734;23.298;2023-03-01T16:13:57;7.65;;;3.33;;
22937;SDS011;11634;42.734;23.298;2023-03-01T16:16:23;5.45;;;4.18;;
22937;SDS011;11634;42.734;23.298;2023-03-01T16:18:49;8.43;;;5.88;;
22937;SDS011;11634;42.734;23.298;2023-03-01T16:21:22;15.02;;;5.68;;
22937;SDS011;11634;42.734;23.298;2023-03-01T16:23:50;8.45;;;5.07;;
22937;SDS011;11634;42.734;23.298;2023-03-01T16:26:18;4.70;;;2.67;;
22937;SDS011;11634;42.734;23.298;2023-03-01T16:28:45;12.23;;;5.97;;
22937;SDS011;11634;42.734;23.298;2023-03-01T16:31:11;5.47;;;3.97;;
22937;SDS011;11634;42.734;23.298;2023-03-01T16:33:42;10.25;;;5.10;;
22937;SDS011;11634;42.734;23.298;2023-03-01T16:36:17;4.90;;;2.78;;
22937;SDS011;11634;42.734;23.298;2023-03-01T16:38:45;6.38;;;5.20;;
22937;SDS011;11634;42.734;23.298;2023-03-01T16:41:16;9.68;;;6.18;;
22937;SDS011;11634;42.734;23.298;2023-03-01T16:43:45;7.97;;;4.68;;
22937;SDS011;11634;42.734;23.298;2023-03-01T16:46:12;6.60;;;4.22;;
22937;SDS011;11634;42.734;23.298;2023-03-01T16:48:44;8.65;;;5.60;;
22937;SDS011;11634;42.734;23.298;2023-03-01T16:51:15;5.35;;;3.13;;
22937;SDS011;11634;42.734;23.298;2023-03-01T16:53:43;7.63;;;4.55;;
22937;SDS011;11634;42.734;23.298;2023-03-01T16:56:11;10.32;;;5.47;;
22937;SDS011;11634;42.734;23.298;2023-03-01T16:58:38;6.78;;;3.90;;
22937;SDS011;11634;42.734;23.298;2023-03-01T17:01:14;6.30;;;4.05;;
22937;SDS011;11634;42.734;23.298;2023-03-01T17:03:42;7.80;;;6.15;;
22937;SDS011;11634;42.734;23.298;2023-03-01T17:06:10;11.57;;;6.05;;
22937;SDS011;11634;42.734;23.298;2023-03-01T17:08:40;7.45;;;5.70;;
22937;SDS011;11634;42.734;23.298;2023-03-01T17:11:07;9.52;;;6.50;;
22937;SDS011;11634;42.734;23.298;2023-03-01T17:13:36;8.55;;;5.32;;
22937;SDS011;11634;42.734;23.298;2023-03-01T17:16:04;9.13;;;5.97;;
22937;SDS011;11634;42.734;23.298;2023-03-01T17:18:31;6.75;;;5.35;;
22937;SDS011;11634;42.734;23.298;2023-03-01T17:20:58;9.70;;;7.00;;
22937;SDS011;11634;42.734;23.298;2023-03-01T17:23:24;13.88;;;8.23;;
22937;SDS011;11634;42.734;23.298;2023-03-01T17:25:51;13.73;;;8.55;;